createdAt,value
2019-03-31T00:00:37.998Z,4.87
2019-03-31T00:03:05.415Z,5.00
2019-03-31T00:05:37.133Z,4.93
2019-03-31T00:08:01.956Z,4.67
2019-03-31T00:10:29.234Z,4.80
2019-03-31T00:12:59.366Z,5.03
2019-03-31T00:15:26.607Z,5.13
2019-03-31T00:17:53.978Z,5.43
2019-03-31T00:20:21.276Z,5.13
2019-03-31T00:22:48.860Z,5.50
2019-03-31T00:25:16.204Z,4.80
2019-03-31T00:27:43.705Z,6.00
2019-03-31T00:30:11.060Z,5.77
2019-03-31T00:32:38.372Z,5.10
2019-03-31T00:35:06.025Z,5.43
2019-03-31T00:37:33.563Z,6.17
2019-03-31T00:40:00.825Z,5.60
2019-03-31T00:42:28.068Z,5.43
2019-03-31T00:44:55.347Z,5.33
2019-03-31T00:47:23.041Z,5.73
2019-03-31T00:49:50.315Z,5.60
2019-03-31T00:52:20.286Z,5.70
2019-03-31T00:54:47.569Z,5.07
2019-03-31T00:57:14.861Z,5.77
2019-03-31T00:59:42.286Z,5.27
2019-03-31T01:02:13.548Z,6.73
2019-03-31T01:04:40.828Z,5.90
2019-03-31T01:07:08.719Z,5.30
2019-03-31T01:09:38.916Z,4.70
2019-03-31T01:12:06.211Z,5.40
2019-03-31T01:14:33.532Z,5.27
2019-03-31T01:17:01.156Z,5.00
2019-03-31T01:19:28.979Z,5.17
2019-03-31T01:22:04.985Z,5.47
2019-03-31T01:24:32.690Z,5.47
2019-03-31T01:27:00.117Z,5.40
2019-03-31T01:29:27.490Z,5.57
2019-03-31T01:31:55.719Z,5.77
2019-03-31T01:34:23.269Z,5.90
2019-03-31T01:36:50.659Z,6.23
2019-03-31T01:39:20.517Z,6.60
2019-03-31T01:41:47.771Z,5.63
2019-03-31T01:44:15.056Z,5.80
2019-03-31T01:46:42.344Z,6.20
2019-03-31T01:49:09.615Z,5.83
2019-03-31T01:51:36.906Z,5.40
2019-03-31T01:54:04.749Z,5.07
2019-03-31T01:56:32.033Z,4.93
2019-03-31T01:58:59.528Z,5.20
2019-03-31T02:01:26.818Z,4.80
2019-03-31T02:03:54.122Z,4.80
2019-03-31T02:06:21.385Z,4.63
2019-03-31T02:08:48.726Z,4.80
2019-03-31T02:11:15.992Z,4.97
2019-03-31T02:13:43.278Z,5.87
2019-03-31T02:16:11.213Z,5.30
2019-03-31T02:18:38.677Z,6.00
2019-03-31T02:21:12.112Z,5.40
2019-03-31T02:23:39.368Z,5.43
2019-03-31T02:26:06.909Z,9.67
2019-03-31T02:28:34.189Z,5.13
2019-03-31T02:31:01.523Z,5.97
2019-03-31T02:33:28.795Z,5.60
2019-03-31T02:35:56.098Z,6.10
2019-03-31T02:38:24.188Z,5.37
2019-03-31T02:40:51.507Z,5.10
2019-03-31T02:43:18.896Z,5.43
2019-03-31T02:45:46.293Z,5.17
2019-03-31T02:48:13.579Z,5.10
2019-03-31T02:50:45.472Z,5.00
2019-03-31T02:53:13.141Z,4.70
2019-03-31T02:55:40.511Z,4.20
2019-03-31T02:58:11.925Z,4.80
2019-03-31T03:00:39.225Z,4.67
2019-03-31T03:03:07.387Z,4.90
2019-03-31T03:05:34.659Z,4.83
2019-03-31T03:08:04.699Z,4.77
2019-03-31T03:10:32.001Z,4.63
2019-03-31T03:12:59.486Z,4.60
2019-03-31T03:15:26.848Z,5.30
2019-03-31T03:17:54.153Z,5.00
2019-03-31T03:20:25.004Z,5.23
2019-03-31T03:22:52.393Z,5.23
2019-03-31T03:25:22.292Z,5.40
2019-03-31T03:27:49.783Z,5.03
2019-03-31T03:30:17.403Z,5.57
2019-03-31T03:33:12.374Z,5.10
2019-03-31T03:35:14.567Z,5.03
2019-03-31T03:37:41.935Z,5.17
2019-03-31T03:40:09.215Z,5.13
2019-03-31T03:42:36.492Z,5.40
2019-03-31T03:45:06.239Z,5.50
2019-03-31T03:47:33.677Z,5.67
2019-03-31T03:50:01.067Z,5.10
2019-03-31T03:52:29.238Z,5.13
2019-03-31T03:54:57.127Z,4.83
2019-03-31T03:57:24.568Z,4.30
2019-03-31T03:59:52.102Z,4.83
2019-03-31T04:02:19.396Z,4.30
2019-03-31T04:04:46.719Z,4.40
2019-03-31T04:07:17.024Z,4.30
2019-03-31T04:09:44.333Z,4.23
2019-03-31T04:12:11.944Z,4.50
2019-03-31T04:14:39.266Z,4.40
2019-03-31T04:17:06.587Z,4.77
2019-03-31T04:19:36.161Z,4.50
2019-03-31T04:22:03.677Z,5.43
2019-03-31T04:24:32.897Z,4.60
2019-03-31T04:27:00.561Z,5.17
2019-03-31T04:29:27.967Z,5.00
2019-03-31T04:31:57.412Z,5.07
2019-03-31T04:34:24.835Z,5.30
2019-03-31T04:36:52.582Z,5.23
2019-03-31T04:39:19.846Z,5.17
2019-03-31T04:41:47.227Z,5.00
2019-03-31T04:44:14.590Z,5.33
2019-03-31T04:46:41.844Z,5.23
2019-03-31T04:49:09.120Z,5.80
2019-03-31T04:51:36.468Z,5.63
2019-03-31T04:54:04.078Z,5.80
2019-03-31T04:56:31.453Z,5.50
2019-03-31T04:58:58.771Z,6.10
2019-03-31T05:01:28.303Z,5.30
2019-03-31T05:04:04.514Z,5.20
2019-03-31T05:06:26.738Z,5.27
2019-03-31T05:08:54.059Z,5.30
2019-03-31T05:11:21.392Z,5.27
2019-03-31T05:13:48.873Z,5.20
2019-03-31T05:16:16.325Z,5.40
2019-03-31T05:18:43.626Z,5.10
2019-03-31T05:21:11.170Z,4.97
2019-03-31T05:23:40.917Z,5.50
2019-03-31T05:26:08.462Z,4.80
2019-03-31T05:28:35.858Z,5.30
2019-03-31T05:31:03.243Z,4.70
2019-03-31T05:33:30.558Z,4.70
2019-03-31T05:35:58.538Z,4.70
2019-03-31T05:38:25.805Z,4.83
2019-03-31T05:40:53.063Z,4.97
2019-03-31T05:43:20.319Z,5.40
2019-03-31T05:45:52.506Z,4.87
2019-03-31T05:48:19.119Z,4.90
2019-03-31T05:50:46.854Z,4.53
2019-03-31T05:53:14.100Z,4.80
2019-03-31T05:55:42.290Z,4.87
2019-03-31T05:58:09.566Z,4.80
2019-03-31T06:00:48.031Z,4.23
2019-03-31T06:03:15.279Z,5.23
2019-03-31T06:05:42.663Z,4.50
2019-03-31T06:08:09.962Z,4.60
2019-03-31T06:10:39.746Z,4.50
2019-03-31T06:13:07.496Z,4.50
2019-03-31T06:15:34.766Z,4.80
2019-03-31T06:18:02.071Z,4.77
2019-03-31T06:20:29.461Z,5.37
2019-03-31T06:22:58.627Z,5.40
2019-03-31T06:25:26.173Z,5.47
2019-03-31T06:27:55.914Z,5.10
2019-03-31T06:30:23.235Z,5.53
2019-03-31T06:32:50.525Z,5.33
2019-03-31T06:35:17.822Z,4.80
2019-03-31T06:37:46.266Z,4.60
2019-03-31T06:40:14.011Z,5.30
2019-03-31T06:42:41.317Z,5.27
2019-03-31T06:45:08.614Z,4.97
2019-03-31T06:47:36.277Z,4.50
2019-03-31T06:50:04.637Z,4.83
2019-03-31T06:52:32.335Z,4.10
2019-03-31T06:54:59.590Z,4.30
2019-03-31T06:57:27.061Z,4.70
2019-03-31T06:59:54.577Z,4.73
2019-03-31T07:02:21.795Z,4.53
2019-03-31T07:05:00.421Z,5.00
2019-03-31T07:07:18.264Z,4.30
2019-03-31T07:09:46.054Z,5.80
2019-03-31T07:12:13.479Z,4.87
2019-03-31T07:14:41.044Z,4.60
2019-03-31T07:17:08.329Z,5.17
2019-03-31T07:19:36.489Z,4.40
2019-03-31T07:22:03.879Z,4.60
2019-03-31T07:24:31.157Z,4.30
2019-03-31T07:26:58.732Z,4.77
2019-03-31T07:29:26.123Z,4.93
2019-03-31T07:31:53.393Z,5.00
2019-03-31T07:34:20.751Z,4.60
2019-03-31T07:36:48.609Z,5.00
2019-03-31T07:39:15.995Z,5.17
2019-03-31T07:41:43.656Z,5.20
2019-03-31T07:44:11.097Z,5.40
2019-03-31T07:46:38.412Z,5.10
2019-03-31T07:49:05.679Z,5.50
2019-03-31T07:51:33.490Z,5.97
2019-03-31T07:54:01.108Z,5.63
2019-03-31T07:56:28.761Z,4.97
2019-03-31T07:58:56.232Z,5.57
2019-03-31T08:01:23.749Z,5.47
2019-03-31T08:03:51.555Z,5.57
2019-03-31T08:06:18.818Z,5.77
2019-03-31T08:08:46.485Z,5.40
2019-03-31T08:11:16.984Z,5.93
2019-03-31T08:13:43.400Z,6.40
2019-03-31T08:16:11.551Z,6.17
2019-03-31T08:18:38.870Z,6.10
2019-03-31T08:21:06.270Z,5.57
2019-03-31T08:23:36.382Z,6.30
2019-03-31T08:26:03.743Z,6.70
2019-03-31T08:28:30.989Z,6.30
2019-03-31T08:30:58.275Z,6.50
2019-03-31T08:33:27.898Z,7.20
2019-03-31T08:35:56.442Z,6.60
2019-03-31T08:38:24.610Z,7.07
2019-03-31T08:40:52.079Z,7.20
2019-03-31T08:43:19.819Z,7.20
2019-03-31T08:45:47.440Z,7.00
2019-03-31T08:48:14.843Z,7.80
2019-03-31T08:50:42.276Z,8.13
2019-03-31T08:53:09.718Z,7.57
2019-03-31T08:55:38.894Z,7.43
2019-03-31T08:58:06.206Z,7.43
2019-03-31T09:00:51.955Z,7.63
2019-03-31T09:03:19.263Z,7.20
2019-03-31T09:06:01.528Z,7.30
2019-03-31T09:08:22.806Z,7.40
2019-03-31T09:10:52.441Z,8.10
2019-03-31T09:13:20.191Z,7.23
2019-03-31T09:15:49.328Z,6.50
2019-03-31T09:18:17.041Z,7.13
2019-03-31T09:20:44.407Z,7.47
2019-03-31T09:23:11.804Z,7.13
2019-03-31T09:25:39.247Z,7.67
2019-03-31T09:28:06.583Z,7.80
2019-03-31T09:30:34.115Z,6.53
2019-03-31T09:33:01.528Z,7.37
2019-03-31T09:35:28.817Z,6.90
2019-03-31T09:37:56.227Z,7.10
2019-03-31T09:40:23.533Z,7.43
2019-03-31T09:42:50.856Z,6.93
2019-03-31T09:45:18.126Z,6.77
2019-03-31T09:47:45.460Z,7.10
2019-03-31T09:50:12.814Z,7.27
2019-03-31T09:52:40.111Z,6.47
2019-03-31T09:55:08.653Z,6.73
2019-03-31T09:57:36.045Z,6.67
2019-03-31T10:00:04.587Z,6.20
2019-03-31T10:02:32.342Z,6.00
2019-03-31T10:04:59.625Z,5.50
2019-03-31T10:07:26.963Z,4.90
2019-03-31T10:09:54.271Z,5.47
2019-03-31T10:12:21.584Z,5.70
2019-03-31T10:14:48.982Z,5.53
2019-03-31T10:17:16.263Z,5.30
2019-03-31T10:19:43.538Z,6.30
2019-03-31T10:22:11.423Z,6.10
2019-03-31T10:24:38.906Z,5.80
2019-03-31T10:27:06.771Z,4.63
2019-03-31T10:29:34.013Z,4.50
2019-03-31T10:32:03.210Z,4.50
2019-03-31T10:34:30.693Z,4.70
2019-03-31T10:36:58.097Z,5.00
2019-03-31T10:39:25.360Z,5.27
2019-03-31T10:41:52.680Z,5.13
2019-03-31T10:44:19.982Z,5.23
2019-03-31T10:46:47.284Z,4.53
2019-03-31T10:49:14.542Z,4.43
2019-03-31T10:51:41.811Z,3.27
2019-03-31T10:54:09.187Z,3.90
2019-03-31T10:56:36.459Z,3.70
2019-03-31T10:59:04.008Z,3.93
2019-03-31T11:01:31.243Z,4.33
2019-03-31T11:03:58.520Z,4.20
2019-03-31T11:06:26.212Z,4.87
2019-03-31T11:08:53.492Z,4.80
2019-03-31T11:11:21.182Z,5.10
2019-03-31T11:13:48.848Z,4.03
2019-03-31T11:16:16.234Z,4.33
2019-03-31T11:18:43.748Z,4.80
2019-03-31T11:21:18.224Z,4.60
2019-03-31T11:23:46.680Z,4.57
2019-03-31T11:26:13.980Z,5.20
2019-03-31T11:28:41.252Z,4.90
2019-03-31T11:31:08.722Z,6.30
2019-03-31T11:33:36.784Z,5.07
2019-03-31T11:36:07.076Z,5.20
2019-03-31T11:38:34.723Z,5.20
2019-03-31T11:41:02.158Z,5.33
2019-03-31T11:43:29.480Z,5.10
2019-03-31T11:45:57.176Z,5.33
2019-03-31T11:48:24.462Z,5.43
2019-03-31T11:50:52.203Z,6.43
2019-03-31T11:53:19.474Z,7.70
2019-03-31T11:55:46.748Z,6.10
2019-03-31T11:58:14.010Z,5.80
2019-03-31T12:00:46.946Z,5.70
2019-03-31T12:03:14.242Z,5.50
2019-03-31T12:05:41.735Z,7.13
2019-03-31T12:08:09.251Z,5.63
2019-03-31T12:10:36.624Z,5.57
2019-03-31T12:13:03.889Z,5.60
2019-03-31T12:15:31.176Z,5.90
2019-03-31T12:17:58.788Z,6.40
2019-03-31T12:20:26.040Z,5.53
2019-03-31T12:22:53.650Z,5.70
2019-03-31T12:25:20.932Z,5.30
2019-03-31T12:27:48.195Z,4.90
2019-03-31T12:30:21.692Z,5.20
2019-03-31T12:32:48.958Z,5.00
2019-03-31T12:35:16.206Z,5.50
2019-03-31T12:37:43.670Z,5.03
2019-03-31T12:40:22.260Z,5.20
2019-03-31T12:42:50.287Z,5.27
2019-03-31T12:45:17.555Z,5.20
2019-03-31T12:47:44.817Z,5.20
2019-03-31T12:50:12.426Z,5.80
2019-03-31T12:52:47.379Z,6.57
2019-03-31T12:55:10.728Z,6.20
2019-03-31T12:57:38.071Z,5.47
2019-03-31T13:00:05.744Z,5.37
2019-03-31T13:02:33.013Z,6.70
2019-03-31T13:05:00.363Z,5.63
2019-03-31T13:07:27.645Z,6.17
2019-03-31T13:09:54.903Z,5.27
2019-03-31T13:12:22.234Z,5.83
2019-03-31T13:14:49.481Z,5.70
2019-03-31T13:17:16.742Z,5.47
2019-03-31T13:19:46.759Z,6.10
2019-03-31T13:22:14.132Z,5.40
2019-03-31T13:24:41.801Z,5.50
2019-03-31T13:27:09.339Z,6.30
2019-03-31T13:29:38.395Z,5.50
2019-03-31T13:32:06.021Z,5.20
2019-03-31T13:34:33.274Z,5.50
2019-03-31T13:37:00.530Z,5.70
2019-03-31T13:39:27.811Z,6.00
2019-03-31T13:41:55.055Z,5.90
2019-03-31T13:44:22.340Z,6.17
2019-03-31T13:46:49.576Z,5.50
2019-03-31T13:49:16.949Z,6.13
2019-03-31T13:51:44.190Z,5.77
2019-03-31T13:54:11.478Z,5.60
2019-03-31T13:56:39.121Z,4.83
2019-03-31T13:59:09.321Z,5.20
2019-03-31T14:01:37.040Z,5.10
2019-03-31T14:04:04.745Z,4.90
2019-03-31T14:06:32.585Z,5.00
2019-03-31T14:09:00.590Z,4.90
2019-03-31T14:11:27.859Z,4.90
2019-03-31T14:13:56.104Z,4.53
2019-03-31T14:16:23.732Z,5.30
2019-03-31T14:18:51.160Z,5.13
2019-03-31T14:21:18.400Z,5.30
2019-03-31T14:23:45.726Z,6.00
2019-03-31T14:26:13.127Z,5.40
2019-03-31T14:28:42.180Z,4.87
2019-03-31T14:31:09.880Z,5.33
2019-03-31T14:33:37.276Z,5.20
2019-03-31T14:36:04.787Z,5.10
2019-03-31T14:38:40.294Z,5.50
2019-03-31T14:41:03.695Z,5.93
2019-03-31T14:43:31.263Z,5.40
2019-03-31T14:45:59.238Z,5.47
2019-03-31T14:48:26.627Z,5.73
2019-03-31T14:50:53.913Z,5.43
2019-03-31T14:53:21.195Z,5.03
2019-03-31T14:55:48.518Z,5.70
2019-03-31T14:58:15.824Z,5.70
2019-03-31T15:00:43.213Z,5.60
2019-03-31T15:03:10.574Z,5.40
2019-03-31T15:05:38.887Z,4.87
2019-03-31T15:08:06.351Z,6.00
2019-03-31T15:10:33.826Z,5.33
2019-03-31T15:13:01.581Z,5.23
2019-03-31T15:15:30.337Z,4.70
2019-03-31T15:17:57.812Z,5.40
2019-03-31T15:20:25.081Z,5.60
2019-03-31T15:22:52.538Z,5.90
2019-03-31T15:25:19.880Z,5.13
2019-03-31T15:27:47.215Z,5.20
2019-03-31T15:30:14.503Z,5.10
2019-03-31T15:32:41.779Z,4.70
2019-03-31T15:35:09.080Z,5.30
2019-03-31T15:37:36.585Z,4.83
2019-03-31T15:40:04.756Z,5.10
2019-03-31T15:42:32.054Z,5.20
2019-03-31T15:44:59.343Z,5.97
2019-03-31T15:47:26.622Z,5.60
2019-03-31T15:49:53.950Z,5.30
2019-03-31T15:52:21.332Z,6.43
2019-03-31T15:54:48.699Z,5.77
2019-03-31T15:57:16.188Z,5.37
2019-03-31T15:59:52.684Z,5.50
2019-03-31T16:02:21.112Z,5.70
2019-03-31T16:04:48.344Z,5.40
2019-03-31T16:07:15.971Z,5.20
2019-03-31T16:09:44.841Z,5.87
2019-03-31T16:12:11.559Z,5.80
2019-03-31T16:14:38.248Z,5.77
2019-03-31T16:17:04.964Z,6.40
2019-03-31T16:19:31.731Z,6.80
2019-03-31T16:21:59.067Z,6.57
2019-03-31T16:24:40.874Z,6.37
2019-03-31T16:27:07.752Z,5.90
2019-03-31T16:29:34.805Z,5.90
2019-03-31T16:32:01.569Z,6.80
2019-03-31T16:34:28.406Z,9.03
2019-03-31T16:36:55.197Z,10.37
2019-03-31T16:39:22.131Z,10.27
2019-03-31T16:41:49.121Z,10.27
2019-03-31T16:44:18.881Z,10.20
2019-03-31T16:46:45.779Z,11.63
2019-03-31T16:49:12.626Z,11.30
2019-03-31T16:51:39.622Z,11.53
2019-03-31T16:54:06.491Z,11.80
2019-03-31T16:56:33.183Z,12.57
2019-03-31T16:59:00.006Z,13.50
2019-03-31T17:01:26.835Z,12.90
2019-03-31T17:03:53.615Z,13.30
2019-03-31T17:06:20.342Z,13.87
2019-03-31T17:08:47.156Z,13.10
2019-03-31T17:11:13.900Z,13.53
2019-03-31T17:13:40.655Z,15.17
2019-03-31T17:16:07.826Z,15.33
2019-03-31T17:18:34.538Z,17.10
2019-03-31T17:21:01.483Z,19.63
2019-03-31T17:23:28.255Z,19.93
2019-03-31T17:25:55.373Z,20.93
2019-03-31T17:28:22.125Z,22.67
2019-03-31T17:30:48.851Z,21.67
2019-03-31T17:33:15.605Z,22.80
2019-03-31T17:35:42.369Z,23.60
2019-03-31T17:38:09.491Z,23.20
2019-03-31T17:40:36.252Z,23.00
2019-03-31T17:43:02.995Z,23.00
2019-03-31T17:45:30.781Z,22.47
2019-03-31T17:47:57.531Z,22.07
2019-03-31T17:50:24.299Z,23.50
2019-03-31T17:52:51.079Z,23.10
2019-03-31T17:55:18.220Z,23.70
2019-03-31T17:57:46.903Z,21.70
2019-03-31T18:00:13.991Z,22.60
2019-03-31T18:02:40.793Z,21.87
2019-03-31T18:05:07.512Z,21.70
2019-03-31T18:07:34.254Z,21.77
2019-03-31T18:10:00.964Z,23.07
2019-03-31T18:12:27.804Z,22.57
2019-03-31T18:14:54.645Z,23.33
2019-03-31T18:17:21.748Z,23.70
2019-03-31T18:19:48.452Z,23.40
2019-03-31T18:22:18.034Z,23.50
2019-03-31T18:24:44.771Z,23.33
2019-03-31T18:27:11.626Z,24.87
2019-03-31T18:29:40.469Z,23.90
2019-03-31T18:32:07.352Z,24.20
2019-03-31T18:34:37.524Z,23.27
2019-03-31T18:37:04.300Z,24.13
2019-03-31T18:39:31.037Z,25.40
2019-03-31T18:41:57.780Z,26.03
2019-03-31T18:44:24.665Z,25.30
2019-03-31T18:46:51.380Z,25.13
2019-03-31T18:49:18.184Z,25.43
2019-03-31T18:51:44.941Z,25.67
2019-03-31T18:54:24.885Z,26.40
2019-03-31T18:57:08.957Z,28.40
2019-03-31T18:59:55.425Z,29.30
2019-03-31T19:02:32.031Z,29.00
2019-03-31T19:05:09.550Z,29.53
2019-03-31T19:08:04.336Z,28.87
2019-03-31T19:10:52.077Z,30.03
2019-03-31T19:13:54.538Z,28.27
2019-03-31T19:16:28.528Z,29.00
2019-03-31T19:19:17.690Z,29.70
2019-03-31T19:21:59.821Z,28.50
2019-03-31T19:25:00.983Z,40.43
2019-03-31T19:27:50.274Z,29.90
2019-03-31T19:30:24.671Z,28.30
2019-03-31T19:33:11.033Z,29.00
2019-03-31T19:35:59.903Z,29.47
2019-03-31T19:38:43.023Z,26.70
2019-03-31T19:41:21.970Z,28.27
2019-03-31T19:44:05.076Z,26.87
2019-03-31T19:46:47.630Z,27.60
2019-03-31T19:49:25.309Z,28.17
2019-03-31T19:52:26.498Z,27.87
2019-03-31T19:55:16.721Z,28.13
2019-03-31T19:58:01.941Z,27.43
2019-03-31T20:01:03.370Z,25.30
2019-03-31T20:03:49.752Z,25.27
2019-03-31T20:06:28.677Z,24.33
2019-03-31T20:09:00.454Z,24.73
2019-03-31T20:11:41.709Z,23.10
2019-03-31T20:14:27.513Z,22.07
2019-03-31T20:17:06.428Z,23.10
2019-03-31T20:20:00.961Z,22.40
2019-03-31T20:22:54.724Z,23.20
2019-03-31T20:25:50.225Z,21.10
2019-03-31T20:28:26.493Z,21.20
2019-03-31T20:31:07.980Z,21.57
2019-03-31T20:33:55.411Z,22.00
2019-03-31T20:36:41.874Z,19.67
2019-03-31T20:39:17.721Z,19.37
2019-03-31T20:42:13.301Z,19.40
2019-03-31T20:44:39.996Z,19.07
2019-03-31T20:47:06.752Z,19.50
2019-03-31T20:49:33.888Z,18.97
2019-03-31T20:52:00.611Z,18.00
2019-03-31T20:54:27.380Z,16.50
2019-03-31T20:56:54.074Z,16.90
2019-03-31T20:59:20.785Z,17.20
2019-03-31T21:01:47.615Z,16.73
2019-03-31T21:04:14.462Z,16.90
2019-03-31T21:06:43.379Z,16.43
2019-03-31T21:09:10.100Z,15.97
2019-03-31T21:11:36.819Z,16.37
2019-03-31T21:14:03.550Z,15.70
2019-03-31T21:16:30.232Z,15.60
2019-03-31T21:18:57.444Z,16.70
2019-03-31T21:21:24.407Z,15.53
2019-03-31T21:23:51.149Z,15.20
2019-03-31T21:26:17.886Z,14.37
2019-03-31T21:28:44.842Z,15.07
2019-03-31T21:31:11.590Z,15.30
2019-03-31T21:33:38.573Z,15.17
2019-03-31T21:36:05.337Z,14.57
2019-03-31T21:38:32.068Z,14.20
2019-03-31T21:40:59.098Z,14.83
2019-03-31T21:43:25.802Z,14.63
2019-03-31T21:45:52.506Z,14.27
2019-03-31T21:48:19.226Z,14.57
2019-03-31T21:50:45.946Z,15.07
2019-03-31T21:53:12.632Z,14.00
2019-03-31T21:55:39.358Z,14.37
2019-03-31T21:58:06.036Z,14.90
2019-03-31T22:00:52.377Z,14.80
2019-03-31T22:03:19.143Z,15.63
2019-03-31T22:05:46.114Z,13.93
2019-03-31T22:08:12.842Z,14.00
2019-03-31T22:10:39.525Z,13.63
2019-03-31T22:13:06.258Z,15.30
2019-03-31T22:15:33.510Z,14.47
2019-03-31T22:18:00.290Z,14.87
2019-03-31T22:20:27.096Z,15.50
2019-03-31T22:22:53.774Z,14.23
2019-03-31T22:25:20.510Z,14.40
2019-03-31T22:27:47.259Z,14.30
2019-03-31T22:30:14.284Z,14.80
2019-03-31T22:32:41.006Z,14.50
2019-03-31T22:35:08.058Z,14.43
2019-03-31T22:37:34.789Z,14.80
2019-03-31T22:40:03.583Z,13.83
2019-03-31T22:42:30.325Z,14.10
2019-03-31T22:44:57.162Z,13.93
2019-03-31T22:47:23.872Z,13.20
2019-03-31T22:49:50.594Z,13.30
2019-03-31T22:52:17.523Z,14.20
2019-03-31T22:54:44.295Z,13.40
2019-03-31T22:57:11.392Z,14.03
2019-03-31T22:59:38.093Z,14.10
2019-03-31T23:02:04.916Z,13.77
2019-03-31T23:04:31.726Z,13.30
2019-03-31T23:06:58.460Z,13.03
2019-03-31T23:09:25.300Z,12.73
2019-03-31T23:11:52.450Z,13.10
2019-03-31T23:14:19.182Z,14.00
2019-03-31T23:16:46.369Z,13.50
2019-03-31T23:19:13.077Z,13.67
2019-03-31T23:21:39.895Z,13.50
2019-03-31T23:24:06.766Z,14.13
2019-03-31T23:26:34.848Z,14.23
2019-03-31T23:29:03.780Z,13.77
2019-03-31T23:31:30.491Z,14.93
2019-03-31T23:33:57.225Z,13.23
2019-03-31T23:36:23.954Z,14.40
2019-03-31T23:38:50.661Z,14.23
2019-03-31T23:41:17.376Z,13.77
2019-03-31T23:43:44.461Z,14.20
2019-03-31T23:46:11.206Z,14.50
2019-03-31T23:48:37.899Z,15.67
2019-03-31T23:51:04.611Z,14.20
2019-03-31T23:53:31.417Z,13.60
2019-03-31T23:55:58.201Z,14.73
2019-03-31T23:58:24.878Z,14.03
